createdAt,value
2022-12-18T00:22:31.358Z,53.13
2022-12-18T00:52:34.166Z,56.43
2022-12-18T01:22:37.782Z,60.75
2022-12-18T01:52:40.818Z,47.93
2022-12-18T02:22:44.435Z,45.90
2022-12-18T02:52:47.242Z,44.60
2022-12-18T03:22:51.110Z,50.87
2022-12-18T03:52:53.911Z,30.40
2022-12-18T04:22:58.044Z,49.57
2022-12-18T04:53:00.811Z,59.03
2022-12-18T05:23:04.084Z,53.25
2022-12-18T05:53:07.309Z,49.40
2022-12-18T06:23:10.947Z,60.40
2022-12-18T06:53:13.683Z,31.47
2022-12-18T07:23:17.670Z,53.67
2022-12-18T07:53:20.429Z,52.33
2022-12-18T08:23:28.619Z,64.67
2022-12-18T08:53:35.641Z,52.53
2022-12-18T09:23:39.873Z,43.00
2022-12-18T09:53:42.680Z,49.93
2022-12-18T10:23:48.390Z,47.30
2022-12-18T10:53:51.662Z,42.17
2022-12-18T11:23:54.795Z,39.80
2022-12-18T11:53:57.726Z,47.37
2022-12-18T12:24:01.758Z,32.10
2022-12-18T12:54:05.095Z,43.57
2022-12-18T13:24:09.872Z,35.15
2022-12-18T13:54:12.673Z,53.63
2022-12-18T14:24:17.882Z,59.97
2022-12-18T14:54:22.479Z,65.65
2022-12-18T15:24:26.987Z,62.37
2022-12-18T15:54:29.791Z,63.87
2022-12-18T16:24:33.679Z,64.57
2022-12-18T16:54:36.544Z,70.80
2022-12-18T17:24:40.205Z,55.45
2022-12-18T17:54:43.145Z,49.60
2022-12-18T18:24:47.274Z,63.40
2022-12-18T18:55:11.462Z,52.75
2022-12-18T19:25:13.710Z,69.60
2022-12-18T19:55:16.973Z,66.50
2022-12-18T20:25:20.738Z,62.85
2022-12-18T20:55:23.638Z,69.17
2022-12-18T21:25:27.288Z,65.13
2022-12-18T21:55:30.212Z,72.37
2022-12-18T22:25:33.821Z,76.20
2022-12-18T22:55:38.013Z,67.57
2022-12-18T23:25:41.592Z,81.87
2022-12-18T23:55:44.408Z,77.87
